Time;durP1;ratioP1;P1;durP2;ratioP2;P2;SDS_P1;SDS_P2;PMS_P1;PMS_P2;Temp;Humidity;BMP_temperature;BMP_pressure;BME280_temperature;BME280_humidity;BME280_pressure;Samples;Min_cycle;Max_cycle;Signal;HPM_P1;HPM_P2
2021/04/20 00:01:41;;;;;;;22.23;16.73;;;8.10;99.00;;;;;;4430437;32;20222;-61
2021/04/20 00:04:09;;;;;;;24.20;18.07;;;8.10;99.00;;;;;;4424607;32;20226;-62
2021/04/20 00:06:35;;;;;;;22.67;17.70;;;8.20;99.00;;;;;;4423452;32;20154;-61
2021/04/20 00:09:04;;;;;;;24.50;18.53;;;8.20;98.80;;;;;;4430645;32;20148;-63
2021/04/20 00:11:30;;;;;;;22.80;16.67;;;8.30;98.90;;;;;;4425103;32;20181;-61
2021/04/20 00:13:56;;;;;;;25.00;18.33;;;8.40;98.60;;;;;;4425436;32;20589;-61
2021/04/20 00:16:22;;;;;;;24.70;18.00;;;8.40;98.60;;;;;;4425262;32;20227;-61
2021/04/20 00:18:50;;;;;;;24.47;17.93;;;8.60;98.50;;;;;;4429039;32;20534;-63
2021/04/20 00:21:18;;;;;;;23.27;18.30;;;8.40;98.50;;;;;;4426317;32;20162;-66
2021/04/20 00:23:45;;;;;;;23.60;18.23;;;8.40;98.50;;;;;;4427121;32;20255;-64
2021/04/20 00:26:11;;;;;;;23.80;17.67;;;8.40;98.80;;;;;;4427591;32;20640;-62
2021/04/20 00:28:37;;;;;;;27.33;18.40;;;8.40;98.60;;;;;;4428779;32;20227;-62
2021/04/20 00:31:04;;;;;;;26.70;19.60;;;8.40;98.70;;;;;;4431918;32;20263;-62
2021/04/20 00:33:30;;;;;;;27.60;19.93;;;8.40;98.90;;;;;;4427359;32;20179;-61
2021/04/20 00:35:56;;;;;;;28.00;20.30;;;8.50;98.70;;;;;;4431089;32;20177;-61
2021/04/20 00:38:23;;;;;;;30.57;20.23;;;8.40;98.80;;;;;;4426260;32;20223;-62
2021/04/20 00:40:49;;;;;;;25.63;20.07;;;8.40;98.70;;;;;;4430879;32;20170;-62
2021/04/20 00:43:16;;;;;;;30.30;22.03;;;8.50;98.70;;;;;;4425703;32;20151;-64
2021/04/20 00:45:43;;;;;;;31.07;21.57;;;8.60;98.70;;;;;;4425394;32;20163;-63
2021/04/20 00:48:10;;;;;;;28.73;20.93;;;8.60;98.30;;;;;;4428393;32;20560;-66
2021/04/20 00:50:38;;;;;;;32.07;22.87;;;8.70;98.30;;;;;;4430539;32;20234;-62
2021/04/20 00:53:07;;;;;;;32.83;22.67;;;8.70;98.00;;;;;;4426659;32;20208;-62
2021/04/20 00:55:35;;;;;;;34.83;22.97;;;8.80;98.00;;;;;;4431690;32;20230;-61
2021/04/20 00:58:03;;;;;;;36.63;23.73;;;8.80;97.80;;;;;;4430118;32;20643;-63
2021/04/20 01:00:32;;;;;;;34.40;23.30;;;8.90;97.70;;;;;;4426973;32;20177;-62
2021/04/20 01:02:58;;;;;;;34.57;25.27;;;8.90;97.80;;;;;;4425719;32;20140;-61
2021/04/20 01:05:27;;;;;;;34.33;23.13;;;9.00;97.80;;;;;;4430556;32;20234;-61
2021/04/20 01:07:58;;;;;;;37.33;24.03;;;9.00;97.70;;;;;;4427791;32;20678;-61
2021/04/20 01:10:26;;;;;;;33.33;23.23;;;9.00;97.50;;;;;;4422814;32;20143;-61
2021/04/20 01:12:55;;;;;;;38.00;25.53;;;9.00;97.30;;;;;;4425402;32;20223;-64
2021/04/20 01:15:21;;;;;;;32.83;23.93;;;9.10;97.40;;;;;;4433867;32;20230;-65
2021/04/20 01:17:48;;;;;;;36.07;24.47;;;9.00;97.60;;;;;;4425649;32;20152;-62
2021/04/20 01:20:15;;;;;;;33.83;25.57;;;9.00;97.30;;;;;;4428788;32;20191;-61
2021/04/20 01:22:45;;;;;;;35.37;24.07;;;9.00;97.50;;;;;;4426662;32;20152;-61
2021/04/20 01:25:14;;;;;;;38.60;25.80;;;9.00;97.30;;;;;;4428203;32;20163;-63
2021/04/20 01:27:41;;;;;;;39.33;27.13;;;9.10;97.40;;;;;;4425722;32;20202;-65
2021/04/20 01:30:10;;;;;;;34.17;24.63;;;9.10;97.20;;;;;;4429119;32;20550;-61
2021/04/20 01:32:38;;;;;;;33.63;24.50;;;9.10;97.20;;;;;;4430964;32;20280;-61
2021/04/20 01:35:07;;;;;;;37.67;24.70;;;9.00;97.10;;;;;;4421671;32;20238;-61
2021/04/20 01:37:33;;;;;;;35.90;24.90;;;9.00;97.20;;;;;;4426123;32;20182;-61
2021/04/20 01:39:59;;;;;;;37.73;26.83;;;9.00;97.30;;;;;;4424057;32;20436;-62
2021/04/20 01:42:27;;;;;;;34.83;24.53;;;9.00;97.30;;;;;;4434641;32;20166;-61
2021/04/20 01:44:54;;;;;;;37.10;25.67;;;9.00;97.50;;;;;;4432158;32;20145;-63
2021/04/20 01:47:20;;;;;;;34.97;25.30;;;9.00;97.60;;;;;;4425521;32;20266;-61
2021/04/20 01:49:46;;;;;;;37.03;26.07;;;8.90;97.50;;;;;;4427155;32;20588;-65
2021/04/20 01:52:15;;;;;;;38.03;25.97;;;8.90;97.50;;;;;;4423589;32;20163;-62
2021/04/20 01:54:41;;;;;;;41.23;24.73;;;8.90;97.80;;;;;;4425070;32;20224;-62
2021/04/20 01:57:10;;;;;;;35.53;24.47;;;8.80;97.90;;;;;;4431189;32;20202;-63
2021/04/20 01:59:37;;;;;;;38.77;25.93;;;8.70;97.70;;;;;;4427447;32;20223;-64
2021/04/20 02:02:04;;;;;;;38.87;25.67;;;8.70;97.90;;;;;;4430601;32;20319;-64
2021/04/20 02:04:30;;;;;;;38.00;26.17;;;8.60;97.90;;;;;;4428125;32;20645;-64
2021/04/20 02:06:57;;;;;;;39.87;26.13;;;8.60;98.00;;;;;;4423627;32;20493;-64
2021/04/20 02:09:23;;;;;;;34.70;25.53;;;8.50;98.50;;;;;;4431788;32;20160;-64
2021/04/20 02:11:50;;;;;;;33.67;24.33;;;8.50;99.00;;;;;;4423859;32;20230;-63
2021/04/20 02:14:16;;;;;;;35.63;25.17;;;8.40;98.50;;;;;;4426406;32;20610;-62
2021/04/20 02:16:44;;;;;;;33.97;23.63;;;8.30;98.70;;;;;;4431273;32;20155;-62
2021/04/20 02:19:14;;;;;;;37.53;25.37;;;8.30;99.00;;;;;;4430481;32;20269;-61
2021/04/20 02:21:41;;;;;;;36.63;25.80;;;8.20;99.30;;;;;;4430455;32;20594;-62
2021/04/20 02:24:09;;;;;;;33.33;24.93;;;8.10;99.40;;;;;;4423751;32;20714;-64
2021/04/20 02:26:38;;;;;;;37.70;25.63;;;8.10;99.60;;;;;;4430706;32;20249;-62
2021/04/20 02:29:06;;;;;;;41.40;27.67;;;8.10;99.70;;;;;;4423634;32;20194;-61
2021/04/20 02:31:34;;;;;;;42.40;27.97;;;7.90;99.80;;;;;;4432564;32;20222;-64
2021/04/20 02:34:03;;;;;;;40.57;27.53;;;7.80;99.90;;;;;;4427425;32;20139;-62
2021/04/20 02:36:31;;;;;;;42.73;27.83;;;7.80;99.90;;;;;;4423681;32;20639;-61
2021/04/20 02:38:57;;;;;;;36.43;25.13;;;7.80;99.90;;;;;;4422266;32;20222;-62
2021/04/20 02:41:25;;;;;;;37.60;26.87;;;7.70;99.90;;;;;;4427510;32;20268;-61
2021/04/20 02:43:52;;;;;;;39.53;27.00;;;7.70;99.90;;;;;;4429358;32;20167;-61
2021/04/20 02:46:19;;;;;;;39.77;27.83;;;7.60;99.90;;;;;;4427651;32;20151;-62
2021/04/20 02:48:45;;;;;;;38.97;26.93;;;7.70;99.90;;;;;;4426173;32;20251;-61
2021/04/20 02:51:14;;;;;;;40.73;27.13;;;7.60;99.90;;;;;;4430094;32;20429;-62
2021/04/20 02:53:42;;;;;;;40.97;26.90;;;7.50;99.90;;;;;;4425249;32;20159;-60
2021/04/20 02:56:11;;;;;;;39.40;26.07;;;7.50;99.90;;;;;;4420886;32;20218;-61
2021/04/20 02:58:39;;;;;;;38.77;26.17;;;7.40;99.90;;;;;;4434739;32;20150;-61
2021/04/20 03:01:11;;;;;;;41.60;27.80;;;7.40;99.90;;;;;;4429969;32;20554;-60
2021/04/20 03:03:39;;;;;;;36.37;24.83;;;7.40;99.90;;;;;;4423302;32;20193;-63
2021/04/20 03:06:06;;;;;;;39.77;26.90;;;7.30;99.90;;;;;;4428785;32;20148;-61
2021/04/20 03:08:33;;;;;;;43.73;26.00;;;7.30;99.90;;;;;;4428448;32;20223;-64
2021/04/20 03:11:06;;;;;;;36.53;25.00;;;7.20;99.90;;;;;;4423822;32;20144;-62
2021/04/20 03:13:33;;;;;;;39.03;26.90;;;7.20;99.90;;;;;;4426595;32;20139;-63
2021/04/20 03:16:04;;;;;;;43.30;26.47;;;7.20;99.90;;;;;;4432495;32;20226;-61
2021/04/20 03:18:30;;;;;;;41.33;25.50;;;7.10;99.90;;;;;;4425218;32;20222;-61
2021/04/20 03:20:57;;;;;;;37.90;25.60;;;7.10;99.90;;;;;;4423106;32;20226;-61
2021/04/20 03:23:23;;;;;;;36.77;25.93;;;7.00;99.90;;;;;;4425969;32;20222;-60
2021/04/20 03:25:51;;;;;;;36.67;24.87;;;7.00;99.90;;;;;;4430300;32;20219;-61
2021/04/20 03:28:17;;;;;;;37.67;25.67;;;6.90;99.90;;;;;;4432311;32;20516;-60
2021/04/20 03:30:44;;;;;;;34.87;23.57;;;6.90;99.90;;;;;;4429106;32;20147;-60
2021/04/20 03:33:16;;;;;;;33.63;22.90;;;6.80;99.90;;;;;;4423651;32;20148;-64
2021/04/20 03:35:52;;;;;;;37.17;24.40;;;6.80;99.90;;;;;;4420271;32;20217;-61
2021/04/20 03:38:25;;;;;;;37.93;24.03;;;6.90;99.90;;;;;;4425352;32;20146;-61
2021/04/20 03:40:55;;;;;;;45.43;28.27;;;6.80;99.90;;;;;;4427442;32;20177;-61
2021/04/20 03:43:27;;;;;;;46.37;28.97;;;6.80;99.90;;;;;;4429540;32;20677;-65
2021/04/20 03:45:59;;;;;;;47.17;29.83;;;6.70;99.90;;;;;;4426143;32;20147;-62
2021/04/20 03:48:29;;;;;;;42.10;27.73;;;6.80;99.90;;;;;;4433147;32;20162;-66
2021/04/20 03:51:00;;;;;;;42.00;27.87;;;6.70;99.90;;;;;;4424763;32;20154;-63
2021/04/20 03:53:27;;;;;;;47.90;28.60;;;6.60;99.90;;;;;;4432439;32;20238;-61
2021/04/20 03:55:56;;;;;;;44.17;28.10;;;6.60;99.90;;;;;;4428219;32;20154;-64
2021/04/20 03:58:25;;;;;;;45.27;29.33;;;6.60;99.90;;;;;;4430067;32;20690;-61
2021/04/20 04:00:53;;;;;;;43.53;29.33;;;6.60;99.90;;;;;;4430595;32;20641;-62
2021/04/20 04:03:24;;;;;;;42.33;29.43;;;6.50;99.90;;;;;;4427255;32;20155;-61
2021/04/20 04:05:52;;;;;;;40.70;26.70;;;6.50;99.90;;;;;;4425251;32;20440;-61
2021/04/20 04:08:19;;;;;;;41.60;26.63;;;6.50;99.90;;;;;;4431050;32;20726;-64
2021/04/20 04:10:51;;;;;;;43.33;28.57;;;6.40;99.90;;;;;;4426409;32;20198;-62
2021/04/20 04:13:22;;;;;;;41.97;27.70;;;6.40;99.90;;;;;;4432248;32;20167;-61
2021/04/20 04:15:50;;;;;;;48.77;29.30;;;6.40;99.90;;;;;;4423610;32;20193;-62
2021/04/20 04:18:18;;;;;;;47.20;30.60;;;6.40;99.90;;;;;;4432959;32;20147;-64
2021/04/20 04:20:48;;;;;;;45.53;29.77;;;6.30;99.90;;;;;;4431012;32;20246;-61
2021/04/20 04:23:17;;;;;;;49.77;30.43;;;6.30;99.90;;;;;;4423375;32;20224;-62
2021/04/20 04:25:55;;;;;;;47.60;30.83;;;6.50;99.90;;;;;;4425754;32;20513;-64
2021/04/20 04:28:24;;;;;;;50.43;31.67;;;6.30;99.90;;;;;;4428653;32;20147;-61
2021/04/20 04:30:51;;;;;;;50.40;31.67;;;6.30;99.90;;;;;;4421748;32;20561;-64
2021/04/20 04:33:19;;;;;;;49.67;32.63;;;6.30;99.90;;;;;;4427750;32;20164;-61
2021/04/20 04:35:47;;;;;;;51.47;32.17;;;6.30;99.90;;;;;;4427078;32;20214;-62
2021/04/20 04:38:15;;;;;;;47.23;29.57;;;6.30;99.90;;;;;;4422710;32;20242;-61
2021/04/20 04:40:42;;;;;;;45.63;30.43;;;6.30;99.90;;;;;;4421016;32;20177;-61
2021/04/20 04:43:09;;;;;;;47.50;29.90;;;6.30;99.90;;;;;;4431126;32;20583;-62
2021/04/20 04:45:36;;;;;;;45.23;29.47;;;6.20;99.90;;;;;;4431022;32;20220;-60
2021/04/20 04:48:03;;;;;;;42.70;28.13;;;6.20;99.90;;;;;;4423632;32;20268;-62
2021/04/20 04:50:30;;;;;;;43.53;29.03;;;6.20;99.90;;;;;;4420315;32;20179;-63
2021/04/20 04:52:58;;;;;;;48.60;31.13;;;6.20;99.90;;;;;;4423405;32;20182;-64
2021/04/20 04:55:24;;;;;;;49.43;30.13;;;6.30;99.90;;;;;;4422229;32;20198;-62
2021/04/20 04:57:51;;;;;;;51.07;29.57;;;6.30;99.90;;;;;;4424997;32;20156;-62
2021/04/20 05:00:19;;;;;;;44.57;28.23;;;6.30;99.90;;;;;;4433746;32;20170;-63
2021/04/20 05:02:46;;;;;;;49.77;31.17;;;6.40;99.90;;;;;;4426045;32;20530;-64
2021/04/20 05:05:15;;;;;;;49.20;31.37;;;6.40;99.90;;;;;;4424584;32;20631;-63
2021/04/20 05:07:42;;;;;;;49.87;31.83;;;6.50;99.90;;;;;;4424662;32;20210;-65
2021/04/20 05:10:10;;;;;;;51.37;30.93;;;6.60;99.90;;;;;;4429896;32;20167;-62
2021/04/20 05:12:37;;;;;;;48.60;31.77;;;6.70;99.90;;;;;;4428900;32;20598;-62
2021/04/20 05:15:09;;;;;;;49.47;30.77;;;7.10;99.90;;;;;;4429238;32;20155;-62
2021/04/20 05:17:37;;;;;;;45.67;29.23;;;7.50;99.90;;;;;;4429808;32;20167;-64
2021/04/20 05:20:06;;;;;;;50.27;31.07;;;7.60;99.90;;;;;;4423539;32;20247;-61
2021/04/20 05:22:34;;;;;;;45.90;30.23;;;7.90;99.80;;;;;;4424350;32;20195;-61
2021/04/20 05:25:01;;;;;;;44.73;28.40;;;8.20;99.30;;;;;;4426636;32;20479;-64
2021/04/20 05:27:27;;;;;;;42.83;28.90;;;8.80;98.40;;;;;;4428477;32;20147;-65
2021/04/20 05:29:54;;;;;;;43.27;29.33;;;8.60;97.90;;;;;;4431569;32;20633;-62
2021/04/20 05:32:20;;;;;;;49.27;31.43;;;8.50;98.10;;;;;;4430372;32;20285;-61
2021/04/20 05:34:46;;;;;;;48.47;32.73;;;8.30;98.30;;;;;;4424290;32;20143;-63
2021/04/20 05:37:14;;;;;;;53.13;34.93;;;8.50;98.70;;;;;;4424662;32;20317;-61
2021/04/20 05:39:40;;;;;;;48.70;32.60;;;8.40;98.20;;;;;;4432357;32;20237;-61
2021/04/20 05:42:07;;;;;;;50.83;33.27;;;8.30;98.60;;;;;;4433507;32;20159;-62
2021/04/20 05:44:33;;;;;;;53.43;35.30;;;8.40;99.20;;;;;;4426969;32;20483;-63
2021/04/20 05:47:00;;;;;;;51.73;33.77;;;9.00;99.60;;;;;;4430197;32;20147;-61
2021/04/20 05:49:27;;;;;;;48.53;31.87;;;10.20;97.70;;;;;;4428847;32;20204;-61
2021/04/20 05:51:54;;;;;;;45.53;29.90;;;11.90;94.70;;;;;;4430546;32;20171;-63
2021/04/20 05:54:21;;;;;;;43.13;28.97;;;13.20;91.50;;;;;;4432302;32;20217;-65
2021/04/20 05:56:50;;;;;;;44.10;30.30;;;14.20;87.80;;;;;;4430528;32;20169;-62
2021/04/20 05:59:17;;;;;;;47.07;30.90;;;14.60;83.80;;;;;;4427725;32;20157;-62
2021/04/20 06:01:44;;;;;;;46.47;31.20;;;13.90;85.30;;;;;;4425519;32;20180;-63
2021/04/20 06:04:11;;;;;;;42.70;31.33;;;12.80;88.20;;;;;;4430872;32;20577;-62
2021/04/20 06:06:39;;;;;;;47.97;31.93;;;12.00;90.40;;;;;;4428749;32;20586;-63
2021/04/20 06:09:07;;;;;;;47.67;32.90;;;11.30;91.80;;;;;;4428405;32;20210;-64
2021/04/20 06:11:35;;;;;;;47.53;32.87;;;10.90;93.10;;;;;;4428708;32;20223;-62
2021/04/20 06:14:02;;;;;;;53.83;33.70;;;10.70;93.80;;;;;;4429518;32;20586;-61
2021/04/20 06:16:29;;;;;;;48.77;32.83;;;10.50;94.20;;;;;;4429355;32;20217;-61
2021/04/20 06:18:57;;;;;;;47.17;32.80;;;10.50;94.50;;;;;;4426128;32;20194;-62
2021/04/20 06:21:26;;;;;;;53.17;33.20;;;10.60;94.80;;;;;;4434147;32;20166;-62
2021/04/20 06:23:52;;;;;;;49.73;33.33;;;10.70;94.70;;;;;;4432812;32;20134;-62
2021/04/20 06:26:19;;;;;;;51.13;33.67;;;10.80;94.80;;;;;;4428484;32;20175;-62
2021/04/20 06:28:46;;;;;;;53.70;34.13;;;10.90;94.60;;;;;;4426741;32;20205;-64
2021/04/20 06:31:14;;;;;;;50.63;33.63;;;11.10;94.50;;;;;;4434216;32;20155;-60
2021/04/20 06:33:41;;;;;;;48.60;33.07;;;11.20;94.30;;;;;;4428201;32;20147;-61
2021/04/20 06:36:09;;;;;;;49.97;34.27;;;11.30;94.20;;;;;;4428832;32;20154;-63
2021/04/20 06:38:38;;;;;;;53.30;33.87;;;11.40;94.40;;;;;;4427679;32;20535;-64
2021/04/20 06:41:07;;;;;;;45.83;33.40;;;11.50;93.50;;;;;;4437399;32;20172;-61
2021/04/20 06:43:44;;;;;;;47.03;32.77;;;11.70;93.60;;;;;;4428568;32;20172;-63
2021/04/20 06:46:18;;;;;;;46.50;32.27;;;11.80;93.20;;;;;;4427759;32;20155;-63
2021/04/20 06:48:47;;;;;;;47.90;34.10;;;11.90;92.90;;;;;;4422938;32;20551;-61
2021/04/20 06:51:16;;;;;;;48.10;32.97;;;12.00;92.60;;;;;;4429135;32;20289;-65
2021/04/20 06:53:47;;;;;;;48.00;33.73;;;12.20;92.40;;;;;;4435020;32;20501;-64
2021/04/20 06:56:29;;;;;;;48.57;34.17;;;12.40;91.90;;;;;;4425229;32;20150;-62
2021/04/20 06:59:08;;;;;;;45.90;31.57;;;12.40;92.20;;;;;;4433096;32;20560;-65
2021/04/20 07:01:41;;;;;;;47.10;33.53;;;12.70;91.80;;;;;;4431317;32;20230;-62
2021/04/20 07:04:13;;;;;;;52.80;34.07;;;12.80;91.20;;;;;;4435283;32;20221;-63
2021/04/20 07:06:52;;;;;;;48.43;34.20;;;12.90;91.10;;;;;;4426924;32;20445;-65
2021/04/20 07:09:22;;;;;;;52.83;35.47;;;13.00;91.00;;;;;;4428232;32;20150;-60
2021/04/20 07:11:51;;;;;;;48.27;33.30;;;13.20;90.80;;;;;;4427894;32;20201;-60
2021/04/20 07:14:27;;;;;;;46.00;32.87;;;13.50;90.20;;;;;;4431859;32;20544;-62
2021/04/20 07:17:04;;;;;;;44.67;31.87;;;13.70;89.30;;;;;;4430361;32;20139;-60
2021/04/20 07:19:46;;;;;;;44.57;32.50;;;13.90;88.20;;;;;;4424557;32;20147;-62
2021/04/20 07:22:38;;;;;;;43.83;30.63;;;14.50;86.10;;;;;;4423306;32;20148;-62
2021/04/20 07:25:17;;;;;;;40.53;30.90;;;15.30;83.10;;;;;;4428816;32;20161;-60
2021/04/20 07:27:55;;;;;;;39.63;29.33;;;17.50;76.90;;;;;;4419953;32;20159;-63
2021/04/20 07:30:27;;;;;;;40.47;29.23;;;20.80;68.70;;;;;;4420947;32;20147;-59
2021/04/20 07:33:10;;;;;;;35.47;27.30;;;23.90;59.10;;;;;;4427630;32;20162;-64
2021/04/20 07:35:43;;;;;;;36.23;26.93;;;26.60;50.60;;;;;;4412942;32;20169;-59
2021/04/20 07:38:21;;;;;;;36.70;27.77;;;28.80;44.80;;;;;;4420258;32;20220;-64
2021/04/20 07:40:57;;;;;;;34.07;28.67;;;31.70;38.30;;;;;;4424822;32;20177;-65
2021/04/20 07:43:47;;;;;;;33.85;26.85;;;34.60;35.00;;;;;;4422823;32;20162;-65
2021/04/20 07:46:18;;;;;;;31.90;26.58;;;36.80;31.80;;;;;;4423569;32;20205;-63
2021/04/20 07:48:56;;;;;;;30.00;26.00;;;38.60;30.80;;;;;;4425222;32;20166;-63
2021/04/20 07:51:29;;;;;;;27.58;23.38;;;40.20;29.80;;;;;;4426975;32;20237;-62
2021/04/20 07:54:04;;;;;;;26.02;22.80;;;41.20;29.60;;;;;;4426571;32;20258;-64
2021/04/20 07:56:34;;;;;;;28.17;25.20;;;42.70;28.60;;;;;;4425271;32;20243;-63
2021/04/20 07:59:05;;;;;;;26.60;23.80;;;43.80;28.30;;;;;;4424428;32;20151;-62
2021/04/20 08:01:41;;;;;;;24.67;22.13;;;44.60;27.90;;;;;;4425199;32;20147;-65
2021/04/20 08:04:36;;;;;;;25.95;23.17;;;45.20;27.40;;;;;;4425555;32;20210;-62
2021/04/20 08:07:06;;;;;;;24.63;22.23;;;45.90;27.20;;;;;;4391807;32;20195;-62
2021/04/20 08:09:37;;;;;;;27.62;24.83;;;45.70;26.70;;;;;;4393551;32;20209;-61
2021/04/20 08:12:07;;;;;;;24.35;21.95;;;45.40;26.30;;;;;;4391230;32;20163;-63
2021/04/20 08:14:44;;;;;;;24.83;22.52;;;45.10;26.80;;;;;;4392546;32;20163;-61
2021/04/20 08:17:16;;;;;;;26.77;24.15;;;45.50;26.40;;;;;;4392831;32;20706;-63
2021/04/20 08:19:50;;;;;;;23.10;21.00;;;45.50;26.40;;;;;;4386287;32;20213;-64
2021/04/20 08:22:17;;;;;;;22.75;20.65;;;45.60;26.10;;;;;;4394750;32;20964;-61
2021/04/20 08:24:50;;;;;;;21.17;19.17;;;44.70;26.10;;;;;;4394156;32;20657;-63
2021/04/20 08:27:24;;;;;;;27.85;25.12;;;45.50;26.20;;;;;;4390879;32;20174;-65
2021/04/20 08:29:54;;;;;;;24.05;21.62;;;46.30;25.60;;;;;;4394607;32;20511;-64
2021/04/20 08:32:25;;;;;;;21.58;19.33;;;46.80;25.90;;;;;;4395872;32;20182;-61
2021/04/20 08:35:00;;;;;;;23.60;21.20;;;46.80;26.10;;;;;;4397007;32;20155;-63
2021/04/20 08:37:35;;;;;;;23.83;21.45;;;47.20;25.40;;;;;;4397209;32;20187;-65
2021/04/20 08:40:19;;;;;;;22.60;20.45;;;46.70;25.70;;;;;;4393564;32;20276;-62
2021/04/20 08:42:50;;;;;;;22.80;20.70;;;46.60;25.80;;;;;;4395670;32;20292;-66
2021/04/20 08:45:23;;;;;;;21.87;19.77;;;46.20;25.50;;;;;;4425663;32;20179;-65
2021/04/20 08:48:01;;;;;;;20.17;18.25;;;46.10;25.90;;;;;;4429982;32;20151;-64
2021/04/20 08:50:34;;;;;;;18.15;16.35;;;46.30;25.30;;;;;;4429118;32;20502;-65
2021/04/20 08:53:14;;;;;;;21.15;19.10;;;45.80;25.60;;;;;;4428090;32;20652;-61
2021/04/20 08:55:47;;;;;;;20.33;18.33;;;45.90;25.20;;;;;;4429414;32;20167;-62
2021/04/20 08:58:34;;;;;;;16.92;15.15;;;45.70;25.30;;;;;;4430137;32;20147;-65
2021/04/20 09:01:10;;;;;;;16.25;14.65;;;45.50;25.40;;;;;;4424593;32;20148;-64
2021/04/20 09:03:48;;;;;;;17.52;15.93;;;45.80;25.10;;;;;;4431432;32;20567;-62
2021/04/20 09:06:29;;;;;;;16.80;15.10;;;45.30;24.80;;;;;;4424289;32;20579;-60
2021/04/20 09:09:03;;;;;;;14.15;12.65;;;43.40;25.10;;;;;;4427771;32;20226;-67
2021/04/20 09:11:35;;;;;;;15.07;13.48;;;42.40;25.40;;;;;;4433241;32;20166;-63
2021/04/20 09:14:08;;;;;;;16.30;12.82;;;39.50;26.90;;;;;;4436150;32;20162;-62
2021/04/20 09:16:42;;;;;;;12.60;11.30;;;34.70;28.30;;;;;;4424256;32;20226;-62
2021/04/20 09:19:12;;;;;;;12.65;11.35;;;31.00;29.70;;;;;;4430258;32;20742;-62
2021/04/20 09:21:50;;;;;;;13.77;12.35;;;27.90;32.00;;;;;;4428663;32;20148;-62
2021/04/20 09:24:19;;;;;;;14.43;11.12;;;26.10;33.40;;;;;;4424545;32;20147;-65
2021/04/20 09:26:53;;;;;;;12.40;10.95;;;24.70;35.30;;;;;;4431260;32;20183;-67
2021/04/20 09:29:26;;;;;;;14.17;11.67;;;23.50;37.10;;;;;;4432538;32;20177;-64
2021/04/20 09:31:57;;;;;;;12.73;11.17;;;23.00;38.20;;;;;;4426653;32;20455;-62
2021/04/20 09:34:27;;;;;;;12.00;9.80;;;22.30;38.20;;;;;;4426498;32;20562;-65
2021/04/20 09:36:56;;;;;;;13.17;9.33;;;21.70;37.90;;;;;;4424941;32;20152;-65
2021/04/20 09:39:24;;;;;;;12.10;10.80;;;21.40;39.50;;;;;;4426820;32;20215;-65
2021/04/20 09:41:53;;;;;;;12.07;10.27;;;21.30;40.30;;;;;;4429381;32;20158;-62
2021/04/20 09:44:40;;;;;;;13.23;10.40;;;21.00;40.50;;;;;;4424093;32;20157;-62
2021/04/20 09:47:42;;;;;;;12.07;10.17;;;20.80;41.20;;;;;;4425098;32;20187;-65
2021/04/20 09:50:16;;;;;;;11.60;9.97;;;20.90;42.40;;;;;;4358776;32;20184;-64
2021/04/20 09:53:05;;;;;;;11.23;8.50;;;21.00;41.70;;;;;;4344541;33;20191;-61
2021/04/20 09:55:36;;;;;;;9.20;8.00;;;21.10;41.60;;;;;;4350535;32;20650;-64
2021/04/20 09:58:04;;;;;;;8.27;7.20;;;20.80;40.80;;;;;;4355713;32;20647;-61
2021/04/20 10:00:31;;;;;;;8.90;6.83;;;21.00;41.00;;;;;;4353922;33;20149;-61
2021/04/20 10:03:28;;;;;;;8.87;7.53;;;21.20;39.90;;;;;;4354782;32;20251;-65
2021/04/20 10:06:12;;;;;;;11.37;9.70;;;21.70;39.60;;;;;;4307461;33;20204;-63
2021/04/20 10:09:03;;;;;;;12.33;9.07;;;21.90;39.30;;;;;;4304656;33;20165;-62
2021/04/20 10:11:43;;;;;;;10.80;8.80;;;21.90;39.90;;;;;;4309718;33;20174;-61
2021/04/20 10:14:18;;;;;;;9.17;8.20;;;21.80;40.80;;;;;;4314815;33;20173;-63
2021/04/20 10:16:56;;;;;;;12.83;8.63;;;21.20;40.10;;;;;;4314110;33;20216;-67
2021/04/20 10:19:28;;;;;;;14.00;11.50;;;21.30;41.50;;;;;;4314459;33;20261;-63
2021/04/20 10:22:16;;;;;;;15.33;12.93;;;21.50;43.00;;;;;;4314648;33;20175;-64
2021/04/20 10:24:52;;;;;;;17.63;13.40;;;21.70;43.40;;;;;;4314580;33;20656;-63
2021/04/20 10:27:22;;;;;;;15.03;13.10;;;21.80;43.70;;;;;;4331204;33;20236;-64
2021/04/20 10:29:56;;;;;;;16.77;13.50;;;21.90;44.30;;;;;;4350795;32;20175;-64
2021/04/20 10:32:29;;;;;;;15.93;13.67;;;21.70;43.90;;;;;;4356479;32;20579;-66
2021/04/20 10:34:56;;;;;;;19.53;15.23;;;22.00;44.70;;;;;;4356829;32;20271;-63
2021/04/20 10:37:34;;;;;;;15.60;13.63;;;22.10;46.00;;;;;;4357419;33;20223;-65
2021/04/20 10:40:03;;;;;;;16.83;13.90;;;22.00;45.50;;;;;;4358325;32;20232;-62
2021/04/20 10:42:32;;;;;;;17.57;14.07;;;22.10;44.30;;;;;;4357035;32;20302;-66
2021/04/20 10:45:00;;;;;;;15.43;13.80;;;22.20;44.80;;;;;;4403168;32;20166;-65
2021/04/20 10:47:26;;;;;;;14.63;12.50;;;22.30;45.00;;;;;;4407413;32;20190;-62
2021/04/20 10:49:55;;;;;;;17.07;14.47;;;22.40;43.80;;;;;;4402286;32;20526;-63
2021/04/20 10:52:23;;;;;;;17.13;13.90;;;22.50;42.60;;;;;;4426028;32;20301;-61
2021/04/20 10:54:51;;;;;;;15.23;12.93;;;22.60;42.30;;;;;;4421670;32;20642;-64
2021/04/20 10:57:21;;;;;;;13.97;12.57;;;22.50;43.50;;;;;;4425161;32;20562;-64
2021/04/20 10:59:52;;;;;;;14.40;12.87;;;22.60;42.80;;;;;;4424923;32;20733;-62
2021/04/20 11:02:22;;;;;;;14.40;12.90;;;22.60;42.20;;;;;;4426367;32;20238;-64
2021/04/20 11:04:52;;;;;;;17.33;13.90;;;22.60;44.30;;;;;;4425069;32;20151;-66
2021/04/20 11:07:21;;;;;;;15.60;13.73;;;22.60;42.80;;;;;;4426762;32;20355;-65
2021/04/20 11:09:54;;;;;;;16.07;12.63;;;22.10;43.20;;;;;;4426113;32;20178;-63
2021/04/20 11:12:22;;;;;;;17.30;14.47;;;22.10;45.00;;;;;;4424944;32;20475;-63
2021/04/20 11:14:50;;;;;;;15.57;13.77;;;21.60;45.90;;;;;;4426825;32;20215;-63
2021/04/20 11:17:23;;;;;;;14.73;13.23;;;21.10;46.70;;;;;;4421345;32;20148;-62
2021/04/20 11:19:55;;;;;;;16.23;14.03;;;21.00;47.80;;;;;;4429008;32;20163;-62
2021/04/20 11:22:24;;;;;;;14.47;12.70;;;21.10;47.50;;;;;;4419507;32;20144;-63
2021/04/20 11:25:02;;;;;;;15.63;13.20;;;21.10;47.80;;;;;;4423962;32;20207;-66
2021/04/20 11:27:32;;;;;;;15.87;12.00;;;21.40;46.20;;;;;;4425755;32;20224;-64
2021/04/20 11:30:05;;;;;;;14.33;11.97;;;21.50;46.30;;;;;;4424858;32;20264;-66
2021/04/20 11:32:34;;;;;;;15.57;11.83;;;21.30;45.40;;;;;;4426481;32;20218;-63
2021/04/20 11:35:06;;;;;;;17.20;13.37;;;21.40;45.90;;;;;;4423869;32;20281;-63
2021/04/20 11:37:33;;;;;;;15.13;12.50;;;21.20;46.10;;;;;;4428149;32;20449;-62
2021/04/20 11:40:05;;;;;;;15.57;12.57;;;21.40;46.70;;;;;;4428272;32;20192;-63
2021/04/20 11:42:39;;;;;;;14.97;12.27;;;21.50;44.80;;;;;;4424563;32;20233;-63
2021/04/20 11:45:13;;;;;;;13.70;12.23;;;21.30;46.40;;;;;;4424909;32;20155;-64
2021/04/20 11:47:52;;;;;;;14.57;11.80;;;21.10;47.10;;;;;;4426288;32;20215;-63
2021/04/20 11:50:20;;;;;;;15.00;13.40;;;21.10;45.10;;;;;;4422576;32;20186;-64
2021/04/20 11:52:55;;;;;;;14.30;12.80;;;20.60;46.80;;;;;;4425901;32;20234;-64
2021/04/20 11:55:28;;;;;;;13.67;12.23;;;20.60;46.50;;;;;;4425940;32;20222;-66
2021/04/20 11:58:01;;;;;;;16.53;12.77;;;20.60;48.10;;;;;;4426788;32;20556;-64
2021/04/20 12:00:30;;;;;;;14.87;12.43;;;20.40;49.00;;;;;;4423691;32;20162;-66
2021/04/20 12:02:57;;;;;;;14.27;12.10;;;20.40;49.90;;;;;;4421751;32;21551;-65
2021/04/20 12:05:24;;;;;;;16.13;13.33;;;20.50;49.50;;;;;;4429900;32;20154;-62
2021/04/20 12:07:51;;;;;;;14.53;13.03;;;20.70;47.20;;;;;;4428299;32;20210;-64
2021/04/20 12:10:19;;;;;;;14.00;12.03;;;20.60;47.30;;;;;;4428058;32;20171;-66
2021/04/20 12:12:51;;;;;;;17.00;13.97;;;20.70;49.00;;;;;;4427720;32;20693;-65
2021/04/20 12:15:22;;;;;;;17.17;14.40;;;20.60;48.30;;;;;;4429832;32;20230;-65
2021/04/20 12:17:50;;;;;;;17.13;12.90;;;20.60;48.20;;;;;;4429180;32;20578;-65
2021/04/20 12:20:19;;;;;;;15.63;13.07;;;20.70;48.30;;;;;;4426099;32;20240;-62
2021/04/20 12:22:52;;;;;;;17.70;14.57;;;20.70;47.40;;;;;;4428976;32;20269;-61
2021/04/20 12:25:22;;;;;;;16.17;14.37;;;20.20;48.80;;;;;;4430416;32;20148;-66
2021/04/20 12:27:52;;;;;;;14.83;12.70;;;20.10;49.90;;;;;;4429930;32;20139;-61
2021/04/20 12:30:21;;;;;;;15.97;13.37;;;20.00;50.20;;;;;;4429729;32;20151;-66
2021/04/20 12:32:49;;;;;;;16.87;14.27;;;20.30;50.20;;;;;;4424880;32;20238;-66
2021/04/20 12:35:24;;;;;;;16.17;14.33;;;20.30;50.00;;;;;;4428165;32;20218;-65
2021/04/20 12:37:55;;;;;;;16.33;14.47;;;20.00;48.50;;;;;;4428272;32;20540;-65
2021/04/20 12:40:23;;;;;;;16.07;14.30;;;20.30;49.40;;;;;;4428100;32;20553;-66
2021/04/20 12:42:55;;;;;;;15.70;13.40;;;20.40;47.90;;;;;;4426971;32;20198;-64
2021/04/20 12:45:26;;;;;;;19.50;16.03;;;20.40;48.50;;;;;;4426246;32;20148;-62
2021/04/20 12:47:56;;;;;;;18.17;14.73;;;20.30;47.40;;;;;;4419731;32;20184;-66
2021/04/20 12:50:29;;;;;;;17.10;13.47;;;20.20;48.40;;;;;;4427139;32;20174;-62